Terminal Aerodrome Forecast
Issued by NWS

Home | Current Version | Previous Version | Text Only | Print | Product List | Glossary On
Versions: 1 2 3 4 5 6 7 8 9 10 11 12 13 14 15 16 17 18 19 20 21 22 23 24 25 26 27 28 29 30
000
FTUS43 KDLH 302100 AAA
TAFBRD
TAF AMD
KBRD 302108Z 3021/3118 04003KT P6SM SCT015 OVC035
     FM310200 VRB02KT P6SM SCT035
     FM310600 13002KT 4SM BR FEW002
     FM311300 15008KT P6SM OVC015
     FM311700 17013G22KT P6SM BKN100=

USA.gov is the U.S. government's official web portal to all federal, state and local government web resources and services.